1871 NOT_NAMED (1871001S16061)


IBTrACS version v04r00. Visit IBTrACS website for data access.
Please direct all questions to the IBTrACS Q and A forum

Storm track - Intensity - Wind Radii - Intensity Data - Source Data - All data

Summary Information

Storm ID 1871001S16061
Start Jan 1 06Z
End Jan 9 06Z
ATCF IDs
Track status Best track data.

Storm track plot

Map of storm track

Intensity plots

No Intensity information for this storm


Radial wind information

No radial wind information for this storm


Position and Intensity Table

BASIN ISO_TIME_________ NATURE LAT LON
degrees north degrees east
SI 1871-01-01 06:00:00 NR -16.10 60.80
SI 09:00:00 NR -16.08 60.85
SI 12:00:00 NR -16.07 60.88
SI 15:00:00 NR -16.07 60.89
SI 18:00:00 NR -16.09 60.86
SI 21:00:00 NR -16.14 60.78
SI 1871-01-02 00:00:00 NR -16.22 60.63
SI 03:00:00 NR -16.34 60.41
SI 06:00:00 NR -16.50 60.10
SI 09:00:00 NR -16.71 59.69
SI 12:00:00 NR -16.96 59.20
SI 15:00:00 NR -17.25 58.65
SI 18:00:00 NR -17.57 58.08
SI 21:00:00 NR -17.91 57.49
SI 1871-01-03 00:00:00 NR -18.27 56.91
SI 03:00:00 NR -18.63 56.37
SI 06:00:00 NR -19.00 55.90
SI 09:00:00 NR -19.34 55.55
SI 12:00:00 NR -19.69 55.25
SI 15:00:00 NR -20.05 54.99
SI 18:00:00 NR -20.42 54.78
SI 21:00:00 NR -20.79 54.61
SI 1871-01-04 00:00:00 NR -21.16 54.48
SI 03:00:00 NR -21.53 54.38
SI 06:00:00 NR -21.90 54.30
SI 09:00:00 NR -22.28 54.21
SI 12:00:00 NR -22.66 54.15
SI 15:00:00 NR -23.03 54.13
SI 18:00:00 NR -23.41 54.13
SI 21:00:00 NR -23.78 54.15
SI 1871-01-05 00:00:00 NR -24.13 54.18
SI 03:00:00 NR -24.47 54.24
SI 06:00:00 NR -24.80 54.30
SI 09:00:00 NR -25.10 54.35
SI 12:00:00 NR -25.38 54.40
SI 15:00:00 NR -25.65 54.48
SI 18:00:00 NR -25.91 54.56
SI 21:00:00 NR -26.16 54.66
SI 1871-01-06 00:00:00 NR -26.41 54.76
SI 03:00:00 NR -26.65 54.88
SI 06:00:00 NR -26.90 55.00
SI 09:00:00 NR -27.17 55.13
SI 12:00:00 NR -27.45 55.27
SI 15:00:00 NR -27.72 55.42
SI 18:00:00 NR -27.99 55.57
SI 21:00:00 NR -28.25 55.73
SI 1871-01-07 00:00:00 NR -28.51 55.89
SI 03:00:00 NR -28.76 56.04
SI 06:00:00 NR -29.00 56.20
SI 09:00:00 NR -29.24 56.36
SI 12:00:00 NR -29.48 56.51
SI 15:00:00 NR -29.71 56.66
SI 18:00:00 NR -29.92 56.81
SI 21:00:00 NR -30.12 56.95
SI 1871-01-08 00:00:00 NR -30.30 57.08
SI 03:00:00 NR -30.46 57.20
SI 06:00:00 NR -30.60 57.30
SI 09:00:00 NR -30.72 57.39
SI 12:00:00 NR -30.81 57.46
SI 15:00:00 NR -30.89 57.52
SI 18:00:00 NR -30.95 57.57
SI 21:00:00 NR -31.00 57.61
SI 1871-01-09 00:00:00 NR -31.04 57.64
SI 03:00:00 NR -31.07 57.67
SI 06:00:00 NR -31.10 57.70

Source Information

Agency Information
USA
TOKYO
CMA
HKO
NEWDELHI
REUNION WMO-Best-Tracks.txt:Line=859:xxxx871126
BOM
NADI
WELLINGTON
DS824
TD9636
TD9635
NEUMANN
MLC

All available IBTrACS Data

SEASON BASIN SUBBASIN ISO_TIME_________ NATURE LAT LON WMO AGENCY DIST2LAND LANDFALL IFLAG USA SSHS REUNION LAT REUNION LON REUNION TYPE REUNION TNUM STORM SPEED STORM DIR
Year degrees north degrees east km km 1 degrees north degrees east 1 kts degrees
1871 SI MM 1871-01-01 06:00:00 NR -16.10 60.80 reunion 554 554 _____O________ -1 -16.10 60.80 99 9.90 1 64
1871 SI MM 09:00:00 NR -16.08 60.85 554 554 _____P________ -1 -16.08 60.85 99 1 71
1871 SI MM 12:00:00 NR -16.07 60.88 560 560 _____P________ -1 -16.07 60.88 99 0 77
1871 SI MM 15:00:00 NR -16.07 60.89 560 560 _____P________ -1 -16.07 60.89 99 0 0
1871 SI MM 18:00:00 NR -16.09 60.86 560 554 _____P________ -1 -16.09 60.86 99 1 237
1871 SI MM 21:00:00 NR -16.14 60.78 554 533 _____P________ -1 -16.14 60.78 99 3 240
1871 SI MM 1871-01-02 00:00:00 NR -16.22 60.63 533 511 _____P________ -1 -16.22 60.63 99 4 241
1871 SI MM 03:00:00 NR -16.34 60.41 511 475 _____P________ -1 -16.34 60.41 99 6 241
1871 SI MM 06:00:00 NR -16.50 60.10 reunion 475 434 _____O________ -1 -16.50 60.10 99 9.90 8 242
1871 SI MM 09:00:00 NR -16.71 59.69 434 391 _____P________ -1 -16.71 59.69 99 10 242
1871 SI MM 12:00:00 NR -16.96 59.20 381 341 _____P________ -1 -16.96 59.20 99 11 241
1871 SI MM 15:00:00 NR -17.25 58.65 330 282 _____P________ -1 -17.25 58.65 99 12 241
1871 SI MM 18:00:00 NR -17.57 58.08 282 246 _____P________ -1 -17.57 58.08 99 13 239
1871 SI MM 21:00:00 NR -17.91 57.49 246 216 _____P________ -1 -17.91 57.49 99 13 238
1871 SI MM 1871-01-03 00:00:00 NR -18.27 56.91 210 197 _____P________ -1 -18.27 56.91 99 13 236
1871 SI MM 03:00:00 NR -18.63 56.37 203 198 _____P________ -1 -18.63 56.37 99 12 233
1871 SI MM 06:00:00 NR -19.00 55.90 reunion 207 190 _____O________ -1 -19.00 55.90 99 9.90 11 228
1871 SI MM 09:00:00 NR -19.34 55.55 190 145 _____P________ -1 -19.34 55.55 99 9 222
1871 SI MM 12:00:00 NR -19.69 55.25 145 113 _____P________ -1 -19.69 55.25 99 9 216
1871 SI MM 15:00:00 NR -20.05 54.99 105 84 _____P________ -1 -20.05 54.99 99 8 211
1871 SI MM 18:00:00 NR -20.42 54.78 84 68 _____P________ -1 -20.42 54.78 99 8 206
1871 SI MM 21:00:00 NR -20.79 54.61 70 66 _____P________ -1 -20.79 54.61 99 8 201
1871 SI MM 1871-01-04 00:00:00 NR -21.16 54.48 73 73 _____P________ -1 -21.16 54.48 99 8 196
1871 SI MM 03:00:00 NR -21.53 54.38 94 94 _____P________ -1 -21.53 54.38 99 8 193
1871 SI MM 06:00:00 NR -21.90 54.30 reunion 123 123 _____O________ -1 -21.90 54.30 99 9.90 8 192
1871 SI MM 09:00:00 NR -22.28 54.21 159 159 _____P________ -1 -22.28 54.21 99 8 190
1871 SI MM 12:00:00 NR -22.66 54.15 193 193 _____P________ -1 -22.66 54.15 99 8 186
1871 SI MM 15:00:00 NR -23.03 54.13 226 226 _____P________ -1 -23.03 54.13 99 8 182
1871 SI MM 18:00:00 NR -23.41 54.13 265 265 _____P________ -1 -23.41 54.13 99 7 178
1871 SI MM 21:00:00 NR -23.78 54.15 305 301 _____P________ -1 -23.78 54.15 99 7 175
1871 SI MM 1871-01-05 00:00:00 NR -24.13 54.18 332 332 _____P________ -1 -24.13 54.18 99 7 173
1871 SI MM 03:00:00 NR -24.47 54.24 374 371 _____P________ -1 -24.47 54.24 99 7 171
1871 SI MM 06:00:00 NR -24.80 54.30 reunion 402 402 _____O________ -1 -24.80 54.30 99 9.90 6 171
1871 SI MM 09:00:00 NR -25.10 54.35 434 431 _____P________ -1 -25.10 54.35 99 6 170
1871 SI MM 12:00:00 NR -25.38 54.40 463 463 _____P________ -1 -25.38 54.40 99 6 168
1871 SI MM 15:00:00 NR -25.65 54.48 493 493 _____P________ -1 -25.65 54.48 99 5 165
1871 SI MM 18:00:00 NR -25.91 54.56 513 513 _____P________ -1 -25.91 54.56 99 5 162
1871 SI MM 21:00:00 NR -26.16 54.66 544 544 _____P________ -1 -26.16 54.66 99 5 160
1871 SI MM 1871-01-06 00:00:00 NR -26.41 54.76 564 564 _____P________ -1 -26.41 54.76 99 5 158
1871 SI MM 03:00:00 NR -26.65 54.88 596 596 _____P________ -1 -26.65 54.88 99 5 157
1871 SI MM 06:00:00 NR -26.90 55.00 reunion 617 617 _____O________ -1 -26.90 55.00 99 9.90 6 157
1871 SI MM 09:00:00 NR -27.17 55.13 650 649 _____P________ -1 -27.17 55.13 99 6 156
1871 SI MM 12:00:00 NR -27.45 55.27 671 671 _____P________ -1 -27.45 55.27 99 6 155
1871 SI MM 15:00:00 NR -27.72 55.42 704 704 _____P________ -1 -27.72 55.42 99 6 154
1871 SI MM 18:00:00 NR -27.99 55.57 737 737 _____P________ -1 -27.99 55.57 99 6 153
1871 SI MM 21:00:00 NR -28.25 55.73 771 771 _____P________ -1 -28.25 55.73 99 6 152
1871 SI MM 1871-01-07 00:00:00 NR -28.51 55.89 793 793 _____P________ -1 -28.51 55.89 99 6 151
1871 SI MM 03:00:00 NR -28.76 56.04 827 827 _____P________ -1 -28.76 56.04 99 6 151
1871 SI MM 06:00:00 NR -29.00 56.20 reunion 851 851 _____O________ -1 -29.00 56.20 99 9.90 6 151
1871 SI MM 09:00:00 NR -29.24 56.36 875 875 _____P________ -1 -29.24 56.36 99 6 150
1871 SI MM 12:00:00 NR -29.48 56.51 909 909 _____P________ -1 -29.48 56.51 99 5 150
1871 SI MM 15:00:00 NR -29.71 56.66 933 933 _____P________ -1 -29.71 56.66 99 5 150
1871 SI MM 18:00:00 NR -29.92 56.81 957 957 _____P________ -1 -29.92 56.81 99 5 149
1871 SI MM 21:00:00 NR -30.12 56.95 980 980 _____P________ -1 -30.12 56.95 99 4 148
1871 SI MM 1871-01-08 00:00:00 NR -30.30 57.08 1005 1005 _____P________ -1 -30.30 57.08 99 4 148
1871 SI MM 03:00:00 NR -30.46 57.20 1028 1028 _____P________ -1 -30.46 57.20 99 4 148
1871 SI MM 06:00:00 NR -30.60 57.30 reunion 1041 1041 _____O________ -1 -30.60 57.30 99 9.90 3 147
1871 SI MM 09:00:00 NR -30.72 57.39 1054 1054 _____P________ -1 -30.72 57.39 99 3 147
1871 SI MM 12:00:00 NR -30.81 57.46 1066 1066 _____P________ -1 -30.81 57.46 99 2 146
1871 SI MM 15:00:00 NR -30.89 57.52 1077 1077 _____P________ -1 -30.89 57.52 99 2 145
1871 SI MM 18:00:00 NR -30.95 57.57 1079 1079 _____P________ -1 -30.95 57.57 99 1 143
1871 SI MM 21:00:00 NR -31.00 57.61 1090 1090 _____P________ -1 -31.00 57.61 99 1 142
1871 SI MM 1871-01-09 00:00:00 NR -31.04 57.64 1090 1090 _____P________ -1 -31.04 57.64 99 1 146
1871 SI MM 03:00:00 NR -31.07 57.67 1103 1103 _____P________ -1 -31.07 57.67 99 1 137
1871 SI MM 06:00:00 NR -31.10 57.70 reunion 1103 _____O________ -1 -31.10 57.70 99 9.90 1 141